Saturday, November 18, 2017, 6:03 PM EST
Back to Local

KGTB, Fort Drum / Wheeler-sack U. S. Army Airfield

Location: Fort Drum, NY, United States Lat: 44.05
Local Time: 6:03 PM EST (23:03 GMT) Lon: -75.733
Time Zone: US/Eastern Elev: 679 ft

Show me the last for .
Show Coded

Time T Td Feel RH Dir Speed Gust Alt SLP Vis Weather Sky Remarks
2017-11-18 16:56 41 29 34 62 140° 13 - 29.41 29.43 10 OVC021 None
2017-11-18 15:56 41 29 35 61 140° 12 - 29.44 29.46 10 OVC022 None
2017-11-18 14:56 42 28 36 57 150° 9 - 29.46 29.48 10 OVC026 None
2017-11-18 13:56 41 25 35 54 150° 9 - 29.50 29.52 10 OVC028 None
2017-11-18 12:56 40 24 32 53 150° 13 - 29.52 29.54 10 OVC033 6-hr Precip Total (1pm): 0.00"
6-hr Min Temp (1pm): 31.8°F
6-hr Max Temp (1pm): 39.6°F
2017-11-18 11:56 39 24 30 55 150° 15 - 29.55 29.57 10 SCT045 BKN055 Pressure falling rapidly
2017-11-18 10:56 36 24 28 60 140° 13 - 29.62 29.64 10 SCT065 1-hr Precip Total: Trace
2017-11-18 10:39 36 23 27 59 150° 13 - 29.62 29.64 10 FEW036 BKN065 None
2017-11-18 09:57 37 21 28 51 150° 17 - 29.62 29.64 10 -DZ FEW055 None
2017-11-18 09:56 37 21 27 51 150° 16 - 29.62 29.64 10 FEW060 None
2017-11-18 08:56 34 19 25 51 150° 15 - 29.66 29.68 10 FEW100 FEW110 None
2017-11-18 07:56 33 18 23 52 140° 14 - 29.69 29.71 10 CLR None
2017-11-18 06:56 32 18 21 56 150° 16 - 29.68 29.70 10 SCT120 BKN160 6-hr Min Temp (7am): 25.2°F
6-hr Max Temp (7am): 31.6°F
2017-11-18 05:56 30 16 18 55 150° 18 - 29.72 29.75 10 FEW120 Peak wind: 29 mph (26 kts) from 140° at 15 min
2017-11-18 04:56 29 18 17 62 150° 20 - 29.77 29.80 10 BKN140 BKN180 None
2017-11-18 03:56 28 19 17 71 140° 13 - 29.82 29.85 10 OVC110 None
2017-11-18 02:56 26 19 15 74 140° 14 - 29.85 29.88 10 BKN120 Pressure falling rapidly
2017-11-18 01:56 26 20 16 77 130° 10 - 29.91 29.93 10 OVC100 None
2017-11-18 00:56 26 20 16 79 140° 9 - 29.94 29.97 10 BKN120 6-hr Min Temp (1am): 25.5°F
6-hr Max Temp (1am): 27.5°F
2017-11-17 23:56 26 20 17 79 150° 8 - 29.98 30.01 10 CLR 24-hr Min Temp (12am): 24.8°F
24-hr Max Temp (12am): 32.5°F
2017-11-17 22:56 26 19 17 74 140° 9 - 29.99 30.02 10 SCT110 None
2017-11-17 21:56 26 20 18 76 140° 8 - 30.01 30.04 10 CLR None
2017-11-17 20:56 26 20 18 77 140° 7 - 30.04 30.07 10 CLR None
2017-11-17 19:56 28 20 24 72 160° 3 - 30.06 30.09 10 OVC120 None
2017-11-17 18:56 28 19 22 69 160° 5 - 30.08 30.11 10 BKN140 6-hr Min Temp (7pm): 26.2°F
6-hr Max Temp (7pm): 32.5°F

Support USWX by starting your Amazon purchase here.